Time;durP1;ratioP1;P1;durP2;ratioP2;P2;SDS_P1;SDS_P2;PMS_P1;PMS_P2;Temp;Humidity;BMP_temperature;BMP_pressure;BME280_temperature;BME280_humidity;BME280_pressure;Samples;Min_cycle;Max_cycle;Signal;HPM_P1;HPM_P2
2021/08/06 00:02:25;;;;;;;;;;;;;;;;;;3606253;39;19928;-74
2021/08/06 00:04:51;;;;;;;;;;;;;;;;;;3610186;39;19939;-73
2021/08/06 00:07:17;;;;;;;;;;;;;;;;;;3611880;39;19928;-74
2021/08/06 00:09:43;;;;;;;;;;;;;;;;;;3621314;39;19927;-74
2021/08/06 00:12:09;;;;;;;;;;;;;;;;;;3627274;39;19940;-72
2021/08/06 00:14:35;;;;;;;;;;;;;;;;;;3615519;39;19931;-72
2021/08/06 00:17:01;;;;;;;;;;;;;;;;;;3621279;39;20196;-72
2021/08/06 00:19:27;;;;;;;;;;;;;;;;;;3621252;39;19954;-72
2021/08/06 00:21:53;;;;;;;;;;;;;;;;;;3621318;39;19931;-71
2021/08/06 00:24:19;;;;;;;;;;;;;;;;;;3613879;39;19934;-72
2021/08/06 00:26:45;;;;;;;;;;;;;;;;;;3616999;39;19927;-71
2021/08/06 00:29:10;;;;;;;;;;;;;;;;;;3622388;39;20215;-72
2021/08/06 00:31:36;;;;;;;;;;;;;;;;;;3611370;39;19934;-72
2021/08/06 00:34:02;;;;;;;;;;;;;;;;;;3613823;39;19936;-72
2021/08/06 00:36:28;;;;;;;;;;;;;;;;;;3621145;39;20184;-71
2021/08/06 00:38:54;;;;;;;;;;;;;;;;;;3611464;39;19927;-71
2021/08/06 00:41:20;;;;;;;;;;;;;;;;;;3623132;39;19927;-70
2021/08/06 00:43:46;;;;;;;;;;;;;;;;;;3613937;39;20184;-71
2021/08/06 00:46:15;;;;;;;;;;;;;;;;;;3626470;39;19927;-70
2021/08/06 00:48:41;;;;;;;;;;;;;;;;;;3620768;39;19935;-73
2021/08/06 00:51:07;;;;;;;;;;;;;;;;;;3620687;39;20177;-73
2021/08/06 00:53:33;;;;;;;;;;;;;;;;;;3617097;39;19931;-73
2021/08/06 00:55:59;;;;;;;;;;;;;;;;;;3610919;39;20015;-74
2021/08/06 00:58:25;;;;;;;;;;;;;;;;;;3621086;39;19940;-73
2021/08/06 01:03:19;;;;;;;;;;;;;;;;;;3579335;40;20046;-73
2021/08/06 01:05:45;;;;;;;;;;;;;;;;;;3580784;40;19980;-72
2021/08/06 01:08:11;;;;;;;;;;;;;;;;;;3573637;40;19988;-72
2021/08/06 01:10:37;;;;;;;;;;;;;;;;;;3580842;40;19929;-74
2021/08/06 01:13:03;;;;;;;;;;;;;;;;;;3580670;40;19929;-73
2021/08/06 01:15:29;;;;;;;;;;;;;;;;;;3580726;40;20170;-73
2021/08/06 01:17:55;;;;;;;;;;;;;;;;;;3580880;40;19939;-73
2021/08/06 01:20:21;;;;;;;;;;;;;;;;;;3581009;40;19929;-73
2021/08/06 01:22:47;;;;;;;;;;;;;;;;;;3580574;40;19929;-72
2021/08/06 01:25:13;;;;;;;;;;;;;;;;;;3580848;40;19936;-73
2021/08/06 01:27:39;;;;;;;;;;;;;;;;;;3580559;40;19941;-73
2021/08/06 01:30:05;;;;;;;;;;;;;;;;;;3580705;40;19929;-73
2021/08/06 01:32:31;;;;;;;;;;;;;;;;;;3580859;40;19940;-74
2021/08/06 01:34:57;;;;;;;;;;;;;;;;;;3580609;40;19937;-73
2021/08/06 01:37:22;;;;;;;;;;;;;;;;;;3579844;40;20301;-76
2021/08/06 01:39:48;;;;;;;;;;;;;;;;;;3578454;40;19948;-72
2021/08/06 01:42:14;;;;;;;;;;;;;;;;;;3580819;40;20014;-73
2021/08/06 01:44:40;;;;;;;;;;;;;;;;;;3580576;40;20043;-73
2021/08/06 01:47:06;;;;;;;;;;;;;;;;;;3580673;40;20065;-75
2021/08/06 01:49:32;;;;;;;;;;;;;;;;;;3580964;40;19939;-73
2021/08/06 01:51:58;;;;;;;;;;;;;;;;;;3580271;40;19929;-73
2021/08/06 01:54:24;;;;;;;;;;;;;;;;;;3570760;40;19929;-76
2021/08/06 01:56:50;;;;;;;;;;;;;;;;;;3580468;40;19968;-73
2021/08/06 01:59:16;;;;;;;;;;;;;;;;;;3580457;40;19952;-73
2021/08/06 02:01:42;;;;;;;;;;;;;;;;;;3579840;40;20218;-80
2021/08/06 02:04:08;;;;;;;;;;;;;;;;;;3569618;40;19925;-72
2021/08/06 02:06:34;;;;;;;;;;;;;;;;;;3570404;40;19953;-73
2021/08/06 02:09:00;;;;;;;;;;;;;;;;;;3572399;40;19936;-73
2021/08/06 02:11:27;;;;;;;;;;;;;;;;;;3575619;40;19935;-72
2021/08/06 02:13:53;;;;;;;;;;;;;;;;;;3576437;40;19929;-73
2021/08/06 02:16:19;;;;;;;;;;;;;;;;;;3574551;40;20226;-73
2021/08/06 02:18:45;;;;;;;;;;;;;;;;;;3580246;40;20194;-72
2021/08/06 02:21:11;;;;;;;;;;;;;;;;;;3580728;40;20211;-73
2021/08/06 02:23:37;;;;;;;;;;;;;;;;;;3580274;40;19941;-73
2021/08/06 02:26:03;;;;;;;;;;;;;;;;;;3578524;40;19941;-73
2021/08/06 02:28:29;;;;;;;;;;;;;;;;;;3575488;40;19940;-73
2021/08/06 02:30:55;;;;;;;;;;;;;;;;;;3580393;40;19929;-72
2021/08/06 02:33:20;;;;;;;;;;;;;;;;;;3575827;40;20279;-73
2021/08/06 02:35:46;;;;;;;;;;;;;;;;;;3570570;40;19933;-73
2021/08/06 02:38:20;;;;;;;;;;;;;;;;;;3576056;40;19929;-72
2021/08/06 02:40:46;;;;;;;;;;;;;;;;;;3574356;40;19935;-72
2021/08/06 02:43:12;;;;;;;;;;;;;;;;;;3577625;40;20202;-72
2021/08/06 02:45:38;;;;;;;;;;;;;;;;;;3573405;40;19939;-73
2021/08/06 02:48:04;;;;;;;;;;;;;;;;;;3580046;40;19933;-72
2021/08/06 02:50:30;;;;;;;;;;;;;;;;;;3570669;40;19929;-73
2021/08/06 02:52:56;;;;;;;;;;;;;;;;;;3568970;40;19936;-72
2021/08/06 02:55:21;;;;;;;;;;;;;;;;;;3571108;40;20019;-72
2021/08/06 02:57:47;;;;;;;;;;;;;;;;;;3579747;40;19929;-73
2021/08/06 03:00:13;;;;;;;;;;;;;;;;;;3581126;40;20018;-73
2021/08/06 03:02:39;;;;;;;;;;;;;;;;;;3577400;40;19937;-74
2021/08/06 03:05:05;;;;;;;;;;;;;;;;;;3578488;40;20293;-73
2021/08/06 03:07:31;;;;;;;;;;;;;;;;;;3581545;40;19929;-74
2021/08/06 03:09:57;;;;;;;;;;;;;;;;;;3582712;40;19940;-74
2021/08/06 03:12:23;;;;;;;;;;;;;;;;;;3582612;40;19929;-73
2021/08/06 03:14:49;;;;;;;;;;;;;;;;;;3581399;40;19929;-73
2021/08/06 03:17:15;;;;;;;;;;;;;;;;;;3582737;40;19936;-73
2021/08/06 03:19:41;;;;;;;;;;;;;;;;;;3582733;40;19933;-72
2021/08/06 03:22:07;;;;;;;;;;;;;;;;;;3582400;40;19948;-72
2021/08/06 03:24:33;;;;;;;;;;;;;;;;;;3572645;40;19929;-73
2021/08/06 03:26:58;;;;;;;;;;;;;;;;;;3578296;40;20282;-73
2021/08/06 03:29:24;;;;;;;;;;;;;;;;;;3575727;40;19929;-73
2021/08/06 03:31:50;;;;;;;;;;;;;;;;;;3582540;40;19961;-73
2021/08/06 03:34:16;;;;;;;;;;;;;;;;;;3582647;40;20301;-73
2021/08/06 03:36:42;;;;;;;;;;;;;;;;;;3582335;40;19933;-72
2021/08/06 03:39:08;;;;;;;;;;;;;;;;;;3582689;40;19929;-73
2021/08/06 03:41:34;;;;;;;;;;;;;;;;;;3582883;40;19940;-74
2021/08/06 03:44:00;;;;;;;;;;;;;;;;;;3579149;40;19929;-73
2021/08/06 03:46:26;;;;;;;;;;;;;;;;;;3579342;40;19928;-74
2021/08/06 03:48:52;;;;;;;;;;;;;;;;;;3582778;40;19929;-73
2021/08/06 03:51:18;;;;;;;;;;;;;;;;;;3577194;40;19929;-74
2021/08/06 03:53:44;;;;;;;;;;;;;;;;;;3581233;40;19928;-73
2021/08/06 03:56:09;;;;;;;;;;;;;;;;;;3574420;40;19929;-73
2021/08/06 03:58:35;;;;;;;;;;;;;;;;;;3582607;40;19929;-74
2021/08/06 04:01:01;;;;;;;;;;;;;;;;;;3581613;40;19929;-73
2021/08/06 04:03:27;;;;;;;;;;;;;;;;;;3581014;40;20182;-73
2021/08/06 04:05:53;;;;;;;;;;;;;;;;;;3578900;40;19937;-75
2021/08/06 04:08:19;;;;;;;;;;;;;;;;;;3582429;40;19968;-74
2021/08/06 04:10:45;;;;;;;;;;;;;;;;;;3582554;40;19932;-74
2021/08/06 04:13:11;;;;;;;;;;;;;;;;;;3577168;40;19929;-73
2021/08/06 04:15:37;;;;;;;;;;;;;;;;;;3573263;40;20297;-73
2021/08/06 04:18:03;;;;;;;;;;;;;;;;;;3582672;40;19947;-75
2021/08/06 04:20:29;;;;;;;;;;;;;;;;;;3582574;40;19936;-73
2021/08/06 04:22:54;;;;;;;;;;;;;;;;;;3581714;40;20224;-73
2021/08/06 04:25:20;;;;;;;;;;;;;;;;;;3576119;40;19937;-74
2021/08/06 04:27:46;;;;;;;;;;;;;;;;;;3580401;40;19941;-72
2021/08/06 04:30:12;;;;;;;;;;;;;;;;;;3578294;40;19929;-76
2021/08/06 04:32:38;;;;;;;;;;;;;;;;;;3579566;40;19929;-73
2021/08/06 04:35:04;;;;;;;;;;;;;;;;;;3581322;40;19929;-73
2021/08/06 04:37:30;;;;;;;;;;;;;;;;;;3576197;40;20269;-77
2021/08/06 04:39:56;;;;;;;;;;;;;;;;;;3582333;40;19929;-73
2021/08/06 04:42:22;;;;;;;;;;;;;;;;;;3578456;40;19936;-73
2021/08/06 04:44:48;;;;;;;;;;;;;;;;;;3578123;40;19929;-74
2021/08/06 04:47:14;;;;;;;;;;;;;;;;;;3577110;40;19967;-73
2021/08/06 04:49:40;;;;;;;;;;;;;;;;;;3579699;40;19933;-74
2021/08/06 04:52:06;;;;;;;;;;;;;;;;;;3580160;40;20018;-73
2021/08/06 04:54:31;;;;;;;;;;;;;;;;;;3571038;40;19929;-75
2021/08/06 04:56:57;;;;;;;;;;;;;;;;;;3582008;40;19987;-73
2021/08/06 04:59:23;;;;;;;;;;;;;;;;;;3581281;40;19941;-74
2021/08/06 05:01:49;;;;;;;;;;;;;;;;;;3572598;40;19937;-73
2021/08/06 05:04:15;;;;;;;;;;;;;;;;;;3576478;40;19929;-73
2021/08/06 05:06:41;;;;;;;;;;;;;;;;;;3580328;40;19929;-73
2021/08/06 05:09:07;;;;;;;;;;;;;;;;;;3582600;40;20196;-75
2021/08/06 05:11:35;;;;;;;;;;;;;;;;;;3582624;40;19933;-76
2021/08/06 05:14:01;;;;;;;;;;;;;;;;;;3573965;40;19933;-74
2021/08/06 05:16:26;;;;;;;;;;;;;;;;;;3572593;40;19983;-75
2021/08/06 05:18:52;;;;;;;;;;;;;;;;;;3579932;40;20275;-75
2021/08/06 05:21:18;;;;;;;;;;;;;;;;;;3582421;40;20008;-75
2021/08/06 05:23:44;;;;;;;;;;;;;;;;;;3582347;40;19969;-76
2021/08/06 05:26:10;;;;;;;;;;;;;;;;;;3579887;40;19943;-75
2021/08/06 05:28:36;;;;;;;;;;;;;;;;;;3577194;40;19933;-74
2021/08/06 05:31:02;;;;;;;;;;;;;;;;;;3581285;40;19933;-75
2021/08/06 05:33:28;;;;;;;;;;;;;;;;;;3581066;40;19929;-74
2021/08/06 05:35:54;;;;;;;;;;;;;;;;;;3580838;40;20072;-77
2021/08/06 05:38:20;;;;;;;;;;;;;;;;;;3572358;40;20265;-76
2021/08/06 05:40:46;;;;;;;;;;;;;;;;;;3571194;40;19956;-76
2021/08/06 05:43:13;;;;;;;;;;;18.60;99.90;;;;;;3572620;40;19973;-75
2021/08/06 05:45:39;;;;;;;;;;;;;;;;;;3577768;40;19940;-75
2021/08/06 05:48:05;;;;;;;;;;;;;;;;;;3573301;40;19929;-79
2021/08/06 05:50:30;;;;;;;;;;;;;;;;;;3574480;40;19929;-76
2021/08/06 05:52:56;;;;;;;;;;;;;;;;;;3582221;40;19928;-75
2021/08/06 05:55:22;;;;;;;;;;;;;;;;;;3582465;40;20289;-76
2021/08/06 05:57:48;;;;;;;;;;;;;;;;;;3581983;40;19933;-73
2021/08/06 06:00:14;;;;;;;;;;;;;;;;;;3574996;40;19929;-73
2021/08/06 06:02:40;;;;;;;;;;;;;;;;;;3582238;40;19939;-74
2021/08/06 06:05:08;;;;;;;;;;;16.70;99.90;;;;;;3580320;40;19928;-76
2021/08/06 06:07:41;;;;;;;;;;;17.10;99.90;;;;;;3575061;40;19940;-75
2021/08/06 06:10:07;;;;;;;;;;;17.20;99.90;;;;;;3579284;40;19940;-76
2021/08/06 06:12:33;;;;;;;;;;;;;;;;;;3579720;40;19944;-76
2021/08/06 06:14:59;;;;;;;;;;;;;;;;;;3576537;40;19929;-75
2021/08/06 06:17:24;;;;;;;;;;;17.20;99.90;;;;;;3580995;40;20270;-75
2021/08/06 06:19:51;;;;;;;;;;;17.60;99.90;;;;;;3582011;40;19952;-75
2021/08/06 06:22:18;;;;;;;;;;;17.60;99.90;;;;;;3581363;40;19932;-75
2021/08/06 06:24:43;;;;;;;;;;;17.70;99.90;;;;;;3575412;40;19933;-77
2021/08/06 06:27:09;;;;;;;;;;;17.80;99.90;;;;;;3579239;40;20189;-76
2021/08/06 06:29:35;;;;;;;;;;;17.80;99.90;;;;;;3579248;40;20019;-75
2021/08/06 06:32:01;;;;;;;;;;;;;;;;;;3577525;40;20280;-76
2021/08/06 06:34:27;;;;;;;;;;;17.90;99.90;;;;;;3574864;40;19929;-75
2021/08/06 06:36:52;;;;;;;;;;;18.20;99.90;;;;;;3577216;40;19933;-75
2021/08/06 06:39:18;;;;;;;;;;;;;;;;;;3578273;40;19932;-78
2021/08/06 06:41:44;;;;;;;;;;;;;;;;;;3581636;40;19941;-75
2021/08/06 06:44:10;;;;;;;;;;;;;;;;;;3577692;40;19940;-75
2021/08/06 06:46:36;;;;;;;;;;;;;;;;;;3581047;40;19985;-76
2021/08/06 06:49:02;;;;;;;;;;;;;;;;;;3577325;40;19952;-76
2021/08/06 06:51:28;;;;;;;;;;;;;;;;;;3580179;40;19929;-75
2021/08/06 06:53:54;;;;;;;;;;;;;;;;;;3580979;40;19929;-75
2021/08/06 06:56:20;;;;;;;;;;;;;;;;;;3577213;40;19957;-73
2021/08/06 06:58:46;;;;;;;;;;;;;;;;;;3578972;40;19956;-71
2021/08/06 07:01:12;;;;;;;;;;;;;;;;;;3580358;40;19929;-73
2021/08/06 07:03:37;;;;;;;;;;;;;;;;;;3579520;40;20278;-72
2021/08/06 07:06:03;;;;;;;;;;;;;;;;;;3580049;40;19929;-72
2021/08/06 07:08:29;;;;;;;;;;;;;;;;;;3579845;40;19929;-72
2021/08/06 07:10:55;;;;;;;;;;;;;;;;;;3579722;40;19928;-72
2021/08/06 07:13:21;;;;;;;;;;;;;;;;;;3580000;40;19929;-73
2021/08/06 07:15:47;;;;;;;;;;;;;;;;;;3580075;40;19929;-72
2021/08/06 07:18:13;;;;;;;;;;;;;;;;;;3617686;22;19928;-78
2021/08/06 07:47:43;;;;;;;;;;;;;;;;;;3647674;22;20391;-83
2021/08/06 07:58:09;;;;;;;;;;;;;;;;;;3623301;39;19938;-79
2021/08/06 08:10:59;;;;;;;;;;;;;;;;;;3716742;22;19968;-78
2021/08/06 08:32:18;;;;;;;;;;;;;;;;;;3635930;22;19964;-79
2021/08/06 08:34:46;;;;;;;;;;;24.00;99.90;;;;;;3608578;39;19951;-77
2021/08/06 08:39:42;;;;;;;;;;;24.40;99.90;;;;;;3601787;40;19946;-74
2021/08/06 08:42:07;;;;;;;;;;;24.50;99.90;;;;;;3591856;40;19940;-74
2021/08/06 08:44:33;;;;;;;;;;;24.60;99.90;;;;;;3600611;39;19939;-74
2021/08/06 08:46:59;;;;;;;;;;;24.60;99.90;;;;;;3603092;39;19940;-72
2021/08/06 08:49:25;;;;;;;;;;;;;;;;;;3600753;40;19932;-71
2021/08/06 08:51:51;;;;;;;;;;;;;;;;;;3590989;40;19928;-71
2021/08/06 08:54:17;;;;;;;;;;;;;;;;;;3600804;40;19928;-70
2021/08/06 08:56:43;;;;;;;;;;;;;;;;;;3593527;39;20017;-70
2021/08/06 08:59:09;;;;;;;;;;;;;;;;;;3600658;39;19929;-70
2021/08/06 09:01:35;;;;;;;;;;;;;;;;;;3600332;39;19950;-70
2021/08/06 09:04:01;;;;;;;;;;;;;;;;;;3600378;39;20024;-71
2021/08/06 09:06:27;;;;;;;;;;;;;;;;;;3600591;40;19940;-71
2021/08/06 09:08:53;;;;;;;;;;;;;;;;;;3600454;40;20296;-70
2021/08/06 09:11:19;;;;;;;;;;;;;;;;;;3600819;40;19978;-72
2021/08/06 09:13:45;;;;;;;;;;;;;;;;;;3600592;40;19928;-71
2021/08/06 09:16:11;;;;;;;;;;;;;;;;;;3601080;39;19943;-76
2021/08/06 09:18:37;;;;;;;;;;;;;;;;;;3600875;40;19931;-70
2021/08/06 09:21:03;;;;;;;;;;;;;;;;;;3600699;39;20029;-72
2021/08/06 09:23:28;;;;;;;;;;;;;;;;;;3600706;40;19935;-71
2021/08/06 09:25:54;;;;;;;;;;;;;;;;;;3600707;39;19936;-72
2021/08/06 09:28:22;;;;;;;;;;;;;;;;;;3600795;40;19978;-72
2021/08/06 09:30:50;;;;;;;;;;;;;;;;;;3600422;40;19928;-75
2021/08/06 09:33:16;;;;;;;;;;;;;;;;;;3600309;40;20280;-70
2021/08/06 09:35:42;;;;;;;;;;;;;;;;;;3600587;40;20010;-70
2021/08/06 09:38:08;;;;;;;;;;;;;;;;;;3594141;39;19932;-71
2021/08/06 09:40:34;;;;;;;;;;;;;;;;;;3603696;39;19928;-71
2021/08/06 09:43:00;;;;;;;;;;;;;;;;;;3599338;39;19935;-71
2021/08/06 09:45:26;;;;;;;;;;;;;;;;;;3602461;39;19927;-71
2021/08/06 09:47:58;;;;;;;;;;;;;;;;;;3602540;39;19967;-71
2021/08/06 09:50:24;;;;;;;;;;;;;;;;;;3600203;39;19968;-71
2021/08/06 09:52:51;;;;;;;;;;;;;;;;;;3591180;40;20288;-71
2021/08/06 09:55:17;;;;;;;;;;;;;;;;;;3600186;39;19939;-71
2021/08/06 09:57:42;;;;;;;;;;;;;;;;;;3604451;39;19927;-70
2021/08/06 10:00:08;;;;;;;;;;;;;;;;;;3600879;39;20220;-70
2021/08/06 10:02:34;;;;;;;;;;;;;;;;;;3588634;40;20269;-70
2021/08/06 10:05:01;;;;;;;;;;;;;;;;;;3604935;39;20280;-70
2021/08/06 10:07:27;;;;;;;;;;;;;;;;;;3602117;39;20284;-71
2021/08/06 10:09:53;;;;;;;;;;;;;;;;;;3604910;39;19928;-71
2021/08/06 10:12:19;;;;;;;;;;;;;;;;;;3600137;39;19928;-71
2021/08/06 10:14:45;;;;;;;;;;;;;;;;;;3599928;39;19928;-71
2021/08/06 10:17:11;;;;;;;;;;;;;;;;;;3600194;39;19935;-71
2021/08/06 10:19:36;;;;;;;;;;;;;;;;;;3600268;39;19940;-71
2021/08/06 10:22:03;;;;;;;;;;;;;;;;;;3600521;39;19934;-70
2021/08/06 10:24:29;;;;;;;;;;;;;;;;;;3607030;39;19960;-71
2021/08/06 10:26:55;;;;;;;;;;;;;;;;;;3600237;39;19928;-70
2021/08/06 10:29:21;;;;;;;;;;;;;;;;;;3592265;39;20012;-70
2021/08/06 10:31:47;;;;;;;;;;;;;;;;;;3610488;39;19931;-71
2021/08/06 10:34:13;;;;;;;;;;;;;;;;;;3602951;39;19928;-71
2021/08/06 10:36:42;;;;;;;;;;;;;;;;;;3606450;39;19927;-70
2021/08/06 10:39:08;;;;;;;;;;;;;;;;;;3596499;39;19968;-71
2021/08/06 10:41:34;;;;;;;;;;;;;;;;;;3599965;39;19928;-71
2021/08/06 10:44:00;;;;;;;;;;;;;;;;;;3596601;39;20166;-71
2021/08/06 10:46:26;;;;;;;;;;;;;;;;;;3599887;39;19979;-71
2021/08/06 10:48:52;;;;;;;;;;;;;;;;;;3602254;39;19936;-71
2021/08/06 10:51:18;;;;;;;;;;;;;;;;;;3599868;39;19928;-71
2021/08/06 10:53:44;;;;;;;;;;;;;;;;;;3599897;39;20020;-70
2021/08/06 10:56:10;;;;;;;;;;;;;;;;;;3602220;39;19928;-71
2021/08/06 10:58:36;;;;;;;;;;;;;;;;;;3597399;39;20013;-71
2021/08/06 11:01:02;;;;;;;;;;;;;;;;;;3599625;39;19968;-70
2021/08/06 11:03:28;;;;;;;;;;;;;;;;;;3602409;39;20014;-71
2021/08/06 11:05:54;;;;;;;;;;;;;;;;;;3599710;39;19928;-71
2021/08/06 11:08:20;;;;;;;;;;;;;;;;;;3599697;39;19928;-71
2021/08/06 11:10:46;;;;;;;;;;;;;;;;;;3599695;39;20201;-71
2021/08/06 11:13:12;;;;;;;;;;;;;;;;;;3600052;39;20273;-71
2021/08/06 11:15:38;;;;;;;;;;;;;;;;;;3599979;39;19985;-70
2021/08/06 11:18:04;;;;;;;;;;;;;;;;;;3599782;39;19935;-70
2021/08/06 11:20:30;;;;;;;;;;;;;;;;;;3599877;39;20296;-70
2021/08/06 11:22:55;;;;;;;;;;;;;;;;;;3599762;39;19936;-70
2021/08/06 11:25:23;;;;;;;;;;;;;;;;;;3599535;39;19935;-71
2021/08/06 11:27:49;;;;;;;;;;;;;;;;;;3600073;39;19928;-71
2021/08/06 11:30:15;;;;;;;;;;;;;;;;;;3601196;39;19928;-71
2021/08/06 11:32:41;;;;;;;;;;;;;;;;;;3608261;39;19935;-71
2021/08/06 11:35:07;;;;;;;;;;;;;;;;;;3601276;39;20001;-70
2021/08/06 11:37:33;;;;;;;;;;;;;;;;;;3601037;39;20271;-70
2021/08/06 11:39:59;;;;;;;;;;;;;;;;;;3598732;39;20021;-71
2021/08/06 11:42:25;;;;;;;;;;;;;;;;;;3601112;39;19936;-71
2021/08/06 11:44:51;;;;;;;;;;;;;;;;;;3603499;39;19935;-71
2021/08/06 11:47:17;;;;;;;;;;;;;;;;;;3596288;39;20373;-71
2021/08/06 11:49:51;;;;;;;;;;;24.70;99.90;;;;;;3601116;39;19936;-70
2021/08/06 11:52:34;;;;;;;;;;;29.00;91.80;;;;;;3600965;39;19939;-71
2021/08/06 11:55:00;;;;;;;;;;;28.50;92.80;;;;;;3603572;39;19936;-71
2021/08/06 11:57:40;;;;;;;;;;;28.40;92.40;;;;;;3599332;39;19972;-71
2021/08/06 12:00:13;;;;;;;;;;;28.50;91.50;;;;;;3604019;39;20285;-70
2021/08/06 12:02:39;;;;;;;;;;;28.50;91.90;;;;;;3599931;39;19954;-71
2021/08/06 12:05:20;;;;;;;;;;;28.60;93.00;;;;;;3601290;39;19932;-71
2021/08/06 12:07:45;;;;;;;;;;;;;;;;;;3599244;39;20273;-71
2021/08/06 12:10:11;;;;;;;;;;;;;;;;;;3601383;39;19932;-71
2021/08/06 12:12:38;;;;;;;;;;;28.40;91.90;;;;;;3608067;39;19932;-71
2021/08/06 12:15:16;;;;;;;;;;;28.50;93.80;;;;;;3600832;39;19940;-70
2021/08/06 12:17:42;;;;;;;;;;;;;;;;;;3600750;39;19941;-71
2021/08/06 12:20:08;;;;;;;;;;;;;;;;;;3601225;39;19932;-71
2021/08/06 12:22:34;;;;;;;;;;;;;;;;;;3600716;39;20029;-71
2021/08/06 12:25:08;;;;;;;;;;;29.00;92.30;;;;;;3600898;39;19940;-71
2021/08/06 12:27:36;;;;;;;;;;;28.30;91.10;;;;;;3599691;39;19932;-70
2021/08/06 12:30:16;;;;;;;;;;;28.40;92.00;;;;;;3600748;39;19944;-70
2021/08/06 12:32:43;;;;;;;;;;;28.50;92.40;;;;;;3601916;39;20567;-71
2021/08/06 12:35:17;;;;;;;;;;;28.70;91.90;;;;;;3606577;39;19940;-71
2021/08/06 12:37:42;;;;;;;;;;;29.00;91.40;;;;;;3600329;39;19932;-71
2021/08/06 12:40:08;;;;;;;;;;;;;;;;;;3600682;39;19940;-71
2021/08/06 12:42:35;;;;;;;;;;;;;;;;;;3599814;39;19936;-71
2021/08/06 12:45:02;;;;;;;;;;;;;;;;;;3600699;39;19928;-71
2021/08/06 12:47:38;;;;;;;;;;;29.30;91.30;;;;;;3600691;39;20005;-70
2021/08/06 12:50:07;;;;;;;;;;;29.40;90.10;;;;;;3600476;39;19938;-71
2021/08/06 12:52:37;;;;;;;;;;;29.00;90.00;;;;;;3599331;39;19944;-71
2021/08/06 12:55:06;;;;;;;;;;;29.30;90.60;;;;;;3600679;39;19944;-71
2021/08/06 12:57:36;;;;;;;;;;;29.30;90.50;;;;;;3596382;39;19939;-71
2021/08/06 13:00:11;;;;;;;;;;;29.10;90.60;;;;;;3596166;39;20013;-70
2021/08/06 13:02:36;;;;;;;;;;;29.00;89.30;;;;;;3596157;39;20269;-71
2021/08/06 13:05:07;;;;;;;;;;;29.30;90.20;;;;;;3600483;39;19968;-71
2021/08/06 13:07:33;;;;;;;;;;;29.70;88.00;;;;;;3600344;39;19936;-71
2021/08/06 13:09:59;;;;;;;;;;;29.90;89.90;;;;;;3600342;39;19964;-71
2021/08/06 13:12:24;;;;;;;;;;;30.10;86.70;;;;;;3607584;39;19933;-71
2021/08/06 13:14:50;;;;;;;;;;;30.30;87.80;;;;;;3600533;39;19932;-71
2021/08/06 13:17:17;;;;;;;;;;;30.70;82.70;;;;;;3599276;39;20013;-71
2021/08/06 13:19:42;;;;;;;;;;;30.80;86.60;;;;;;3600695;39;19954;-71
2021/08/06 13:22:12;;;;;;;;;;;30.30;85.30;;;;;;3600674;39;19932;-71
2021/08/06 13:24:38;;;;;;;;;;;30.20;87.10;;;;;;3593565;39;19943;-71
2021/08/06 13:27:04;;;;;;;;;;;30.30;85.60;;;;;;3600778;39;20277;-71
2021/08/06 13:29:29;;;;;;;;;;;30.70;87.30;;;;;;3602701;39;19939;-71
2021/08/06 13:31:57;;;;;;;;;;;31.20;88.20;;;;;;3599181;39;19939;-71
2021/08/06 13:34:23;;;;;;;;;;;30.80;81.50;;;;;;3606005;39;20196;-71
2021/08/06 13:36:48;;;;;;;;;;;30.70;84.10;;;;;;3600585;39;19943;-71
2021/08/06 13:39:15;;;;;;;;;;;30.60;85.20;;;;;;3600667;39;19932;-71
2021/08/06 13:41:41;;;;;;;;;;;;;;;;;;3602310;39;19932;-71
2021/08/06 13:44:07;;;;;;;;;;;30.60;86.50;;;;;;3600487;39;20013;-71
2021/08/06 13:46:33;;;;;;;;;;;29.80;90.30;;;;;;3600162;39;19939;-68
2021/08/06 13:48:59;;;;;;;;;;;29.50;88.20;;;;;;3593926;39;19998;-68
2021/08/06 13:51:25;;;;;;;;;;;29.50;89.10;;;;;;3596726;39;19936;-68
2021/08/06 13:53:51;;;;;;;;;;;29.80;89.00;;;;;;3600165;39;20047;-69
2021/08/06 13:56:17;;;;;;;;;;;;;;;;;;3602727;39;20017;-69
2021/08/06 13:58:44;;;;;;;;;;;30.30;87.00;;;;;;3600198;39;19940;-69
2021/08/06 14:01:09;;;;;;;;;;;31.10;82.40;;;;;;3600196;39;19940;-69
2021/08/06 14:03:35;;;;;;;;;;;31.10;82.30;;;;;;3602759;39;20200;-68
2021/08/06 14:06:02;;;;;;;;;;;;;;;;;;3600213;39;20013;-70
2021/08/06 14:08:28;;;;;;;;;;;31.30;82.00;;;;;;3600154;39;19928;-71
2021/08/06 14:10:54;;;;;;;;;;;;;;;;;;3600295;39;20321;-71
2021/08/06 14:13:20;;;;;;;;;;;;;;;;;;3600351;39;19935;-71
2021/08/06 14:15:47;;;;;;;;;;;31.50;80.60;;;;;;3599218;39;19949;-70
2021/08/06 14:18:14;;;;;;;1.23;0.52;;;31.80;77.90;;;;;;3599886;39;19947;-71
2021/08/06 14:20:40;;;;;;;;;;;31.70;79.60;;;;;;3600139;39;20020;-71
2021/08/06 14:23:06;;;;;;;;;;;31.60;79.30;;;;;;3600350;39;20291;-70
2021/08/06 14:25:33;;;;;;;;;;;31.30;77.20;;;;;;3600196;39;19935;-70
2021/08/06 14:27:59;;;;;;;;;;;;;;;;;;3599893;39;20013;-70
2021/08/06 14:30:25;;;;;;;;;;;;;;;;;;3599264;39;19936;-70
2021/08/06 14:32:51;;;;;;;;;;;;;;;;;;3600131;39;20251;-71
2021/08/06 14:35:17;;;;;;;;;;;;;;;;;;3599963;39;19951;-68
2021/08/06 14:37:44;;;;;;;;;;;30.60;79.00;;;;;;3599775;39;19924;-70
2021/08/06 14:40:10;;;;;;;;;;;31.30;77.70;;;;;;3599012;39;19928;-70
2021/08/06 14:42:35;;;;;;;;;;;31.60;71.60;;;;;;3600109;39;20184;-70
2021/08/06 14:45:01;;;;;;;;;;;31.50;74.80;;;;;;3597591;39;19937;-70
2021/08/06 14:47:28;;;;;;;;;;;31.60;76.80;;;;;;3599949;39;19928;-71
2021/08/06 14:49:54;;;;;;;;;;;;;;;;;;3602027;39;19946;-71
2021/08/06 14:52:20;;;;;;;;;;;;;;;;;;3602279;39;19924;-70
2021/08/06 14:54:45;;;;;;;;;;;;;;;;;;3605800;39;19932;-71
2021/08/06 14:57:12;;;;;;;;;;;;;;;;;;3601034;39;19924;-71
2021/08/06 14:59:37;;;;;;;;;;;;;;;;;;3597356;39;19925;-70
2021/08/06 15:02:03;;;;;;;;;;;;;;;;;;3598638;39;19920;-71
2021/08/06 15:04:29;;;;;;;;;;;;;;;;;;3601591;39;19980;-71
2021/08/06 15:06:55;;;;;;;;;;;;;;;;;;3601308;39;20276;-71
2021/08/06 15:09:22;;;;;;;;;;;31.80;74.60;;;;;;3598292;39;19930;-71
2021/08/06 15:11:48;;;;;;;;;;;32.10;75.20;;;;;;3607883;39;19968;-71
2021/08/06 15:14:14;;;;;;;1.75;0.55;;;31.90;73.20;;;;;;3608715;39;20262;-71
2021/08/06 15:16:39;;;;;;;;;;;32.00;74.30;;;;;;3601216;39;20289;-71
2021/08/06 15:19:07;;;;;;;2.75;0.70;;;31.80;74.60;;;;;;3600852;39;19928;-73
2021/08/06 15:21:34;;;;;;;1.55;0.80;;;31.70;75.90;;;;;;3601628;39;20028;-74
2021/08/06 15:24:00;;;;;;;1.15;0.50;;;31.70;75.80;;;;;;3599798;39;20465;-74
2021/08/06 15:26:27;;;;;;;0.95;0.45;;;31.70;76.40;;;;;;3604521;39;20397;-74
2021/08/06 15:28:53;;;;;;;1.00;0.50;;;31.50;74.30;;;;;;3598661;40;20381;-74
2021/08/06 15:31:19;;;;;;;1.87;0.60;;;;;;;;;;3599338;39;20365;-74
2021/08/06 15:33:45;;;;;;;1.52;0.45;;;;;;;;;;3597972;39;20372;-71
2021/08/06 15:36:12;;;;;;;3.00;0.60;;;;;;;;;;3597384;39;20373;-74
2021/08/06 15:38:40;;;;;;;1.73;0.50;;;;;;;;;;3593993;39;20444;-74
2021/08/06 15:41:07;;;;;;;1.33;0.60;;;;;;;;;;3601361;39;20373;-74
2021/08/06 15:43:34;;;;;;;1.20;0.60;;;;;;;;;;3599244;39;20802;-74
2021/08/06 15:46:00;;;;;;;;;;;;;;;;;;3597872;39;20390;-74
2021/08/06 15:48:26;;;;;;;;;;;31.40;73.40;;;;;;3602216;39;19938;-74
2021/08/06 15:50:52;;;;;;;;;;;32.50;75.00;;;;;;3604389;39;19934;-74
2021/08/06 15:53:18;;;;;;;;;;;32.40;76.70;;;;;;3601922;39;19935;-74
2021/08/06 15:55:43;;;;;;;;;;;32.60;75.70;;;;;;3597140;39;19935;-74
2021/08/06 15:58:09;;;;;;;;;;;32.80;75.10;;;;;;3604493;39;19928;-75
2021/08/06 16:00:37;;;;;;;;;;;32.70;76.80;;;;;;3606405;39;19932;-74
2021/08/06 16:03:03;;;;;;;;;;;32.90;76.80;;;;;;3602017;39;19935;-74
2021/08/06 16:05:29;;;;;;;1.15;0.50;;;33.20;75.40;;;;;;3600077;39;19928;-74
2021/08/06 16:07:54;;;;;;;2.10;0.60;;;33.30;75.70;;;;;;3600375;39;20412;-73
2021/08/06 16:10:20;;;;;;;1.48;0.47;;;33.50;73.60;;;;;;3601022;39;20435;-73
2021/08/06 16:12:46;;;;;;;1.27;0.50;;;33.50;73.70;;;;;;3594393;39;20040;-74
2021/08/06 16:15:12;;;;;;;1.40;0.50;;;33.50;72.90;;;;;;3598809;39;20369;-73
2021/08/06 16:17:40;;;;;;;1.90;0.60;;;33.50;73.70;;;;;;3596307;39;20468;-73
2021/08/06 16:20:07;;;;;;;0.82;0.50;;;33.30;75.00;;;;;;3588712;40;20355;-74
2021/08/06 16:22:34;;;;;;;1.10;0.55;;;33.20;74.40;;;;;;3598878;39;20395;-74
2021/08/06 16:25:00;;;;;;;0.90;0.50;;;33.00;74.70;;;;;;3604087;39;20395;-74
2021/08/06 16:27:26;;;;;;;0.60;0.40;;;32.90;73.90;;;;;;3597891;39;20419;-73
2021/08/06 16:29:52;;;;;;;1.58;0.50;;;32.80;75.70;;;;;;3599019;39;20369;-73
2021/08/06 16:32:18;;;;;;;1.87;0.50;;;32.70;76.60;;;;;;3598705;39;20377;-74
2021/08/06 16:34:45;;;;;;;2.37;0.70;;;32.50;75.20;;;;;;3597444;40;20392;-74
2021/08/06 16:37:11;;;;;;;1.50;0.60;;;32.40;75.30;;;;;;3598737;39;20365;-75
2021/08/06 16:39:38;;;;;;;1.02;0.70;;;;;;;;;;3588453;39;20427;-74
2021/08/06 16:42:04;;;;;;;0.60;0.50;;;;;;;;;;3588568;40;20613;-74
2021/08/06 16:44:30;;;;;;;0.82;0.52;;;;;;;;;;3582261;40;20408;-74
2021/08/06 16:46:57;;;;;;;0.82;0.50;;;;;;;;;;3590032;40;20355;-74
2021/08/06 16:49:23;;;;;;;1.02;0.52;;;;;;;;;;3591262;40;20748;-74
2021/08/06 16:51:50;;;;;;;0.60;0.50;;;;;;;;;;3588787;40;20380;-75
2021/08/06 16:54:16;;;;;;;0.77;0.60;;;32.20;73.90;;;;;;3588729;40;20366;-73